Latest Weather Observations for Thevenard

IDS60801

Issued at 3:02 pm CDT Friday 30 January 2015 (issued every 30 minutes, with the page automatically refreshed every 10 minutes)

About weather observations | Map of weather stations | Latest weather observations for SA | Other Formats
Station Details ID: 018200 Name: THEVENARD WIND Lat: -32.18 Lon: 133.63 Height: 8.85 m
Data from the previous 72 hours. | See also: Recent months for locations in South Australia
Date/Time
CDT
Temp
°C
App
Temp
°C
Dew
Point
Rel
Hum
%
Delta-T
°C
Wind Press
QNH
hPa
Press
MSL
hPa
Rain
since 9 am
mm
Dir
 
Spd
km/h
Gust
km/h
Spd
kts
Gust
kts
30/03:00pm - - - - - S 37 44 20 24 - - -
30/02:30pm - - - - - S 33 39 18 21 - - -
30/02:00pm - - - - - S 33 39 18 21 - - -
30/01:30pm - - - - - S 30 35 16 19 - - -
30/01:00pm - - - - - S 28 32 15 17 - - -
30/12:30pm - - - - - S 24 28 13 15 - - -
30/12:00pm - - - - - S 20 22 11 12 - - -
30/11:30am - - - - - S 20 22 11 12 - - -
30/11:00am - - - - - SSE 19 20 10 11 - - -
30/10:30am - - - - - SSE 17 19 9 10 - - -
30/10:00am - - - - - SE 13 17 7 9 - - -
30/09:30am - - - - - SE 13 19 7 10 - - -
30/09:00am - - - - - ESE 20 26 11 14 - - -
30/08:30am - - - - - ESE 19 24 10 13 - - -
30/08:00am - - - - - ESE 24 33 13 18 - - -
30/07:30am - - - - - SE 26 33 14 18 - - -
30/07:00am - - - - - SE 26 33 14 18 - - -
30/06:30am - - - - - ESE 26 35 14 19 - - -
30/06:00am - - - - - ESE 35 44 19 24 - - -
30/05:30am - - - - - ESE 28 39 15 21 - - -
30/05:00am - - - - - SE 28 37 15 20 - - -
30/04:30am - - - - - SE 28 37 15 20 - - -
30/04:00am - - - - - SE 26 35 14 19 - - -
30/03:30am - - - - - SE 26 33 14 18 - - -
30/03:00am - - - - - SE 24 33 13 18 - - -
30/02:30am - - - - - SE 22 30 12 16 - - -
30/02:00am - - - - - SE 19 24 10 13 - - -
30/01:30am - - - - - SE 19 22 10 12 - - -
30/01:00am - - - - - SSE 15 17 8 9 - - -
30/12:30am - - - - - SSE 17 19 9 10 - - -
30/12:00am - - - - - SSE 19 24 10 13 - - -
 
Date/Time
CDT
Temp
°C
App
Temp
°C
Dew
Point
Rel
Hum
%
Delta-T
°C
Wind Press
QNH
hPa
Press
MSL
hPa
Rain
since 9 am
mm
Dir
 
Spd
km/h
Gust
km/h
Spd
kts
Gust
kts
29/11:30pm - - - - - S 24 28 13 15 - - -
29/11:00pm - - - - - S 28 33 15 18 - - -
29/10:30pm - - - - - S 28 32 15 17 - - -
29/10:00pm - - - - - S 28 32 15 17 - - -
29/09:30pm - - - - - S 30 33 16 18 - - -
29/09:00pm - - - - - S 22 28 12 15 - - -
29/08:30pm - - - - - S 28 33 15 18 - - -
29/08:00pm - - - - - S 30 35 16 19 - - -
29/07:30pm - - - - - S 33 39 18 21 - - -
29/07:00pm - - - - - S 33 39 18 21 - - -
29/06:30pm - - - - - S 32 37 17 20 - - -
29/06:00pm - - - - - S 35 41 19 22 - - -
29/05:30pm - - - - - S 37 44 20 24 - - -
29/05:00pm - - - - - SSW 26 33 14 18 - - -
29/04:30pm - - - - - SSW 24 28 13 15 - - -
29/04:00pm - - - - - S 30 33 16 18 - - -
29/03:30pm - - - - - S 32 35 17 19 - - -
29/03:00pm - - - - - S 32 35 17 19 - - -
29/02:30pm - - - - - S 30 32 16 17 - - -
29/02:00pm - - - - - S 26 30 14 16 - - -
29/01:30pm - - - - - S 26 30 14 16 - - -
29/01:00pm - - - - - S 26 30 14 16 - - -
29/12:30pm - - - - - S 24 26 13 14 - - -
29/12:00pm - - - - - S 22 24 12 13 - - -
29/11:30am - - - - - S 19 22 10 12 - - -
29/11:00am - - - - - SSE 20 24 11 13 - - -
29/10:30am - - - - - SE 19 22 10 12 - - -
29/10:00am - - - - - SE 15 20 8 11 - - -
29/09:30am - - - - - ESE 17 24 9 13 - - -
29/09:00am - - - - - ESE 20 28 11 15 - - -
29/08:30am - - - - - ESE 26 32 14 17 - - -
29/08:00am - - - - - ESE 24 32 13 17 - - -
29/07:30am - - - - - ESE 26 35 14 19 - - -
29/07:00am - - - - - ESE 26 35 14 19 - - -
29/06:30am - - - - - SE 26 33 14 18 - - -
29/06:00am - - - - - ESE 28 37 15 20 - - -
29/05:30am - - - - - SE 28 39 15 21 - - -
29/05:00am - - - - - ESE 30 39 16 21 - - -
29/04:30am - - - - - ESE 32 41 17 22 - - -
29/04:00am - - - - - SE 30 41 16 22 - - -
29/03:30am - - - - - ESE 35 44 19 24 - - -
29/03:00am - - - - - ESE 33 48 18 26 - - -
29/02:30am - - - - - ESE 33 44 18 24 - - -
29/02:00am - - - - - ESE 37 46 20 25 - - -
29/01:30am - - - - - ESE 33 43 18 23 - - -
29/01:00am - - - - - ESE 33 44 18 24 - - -
29/12:30am - - - - - SE 32 41 17 22 - - -
29/12:00am - - - - - SE 35 39 19 21 - - -
 
Date/Time
CDT
Temp
°C
App
Temp
°C
Dew
Point
Rel
Hum
%
Delta-T
°C
Wind Press
QNH
hPa
Press
MSL
hPa
Rain
since 9 am
mm
Dir
 
Spd
km/h
Gust
km/h
Spd
kts
Gust
kts
28/11:30pm - - - - - SE 39 46 21 25 - - -
28/11:00pm - - - - - SSE 41 48 22 26 - - -
28/10:30pm - - - - - SSE 43 48 23 26 - - -
28/10:00pm - - - - - SSE 43 48 23 26 - - -
28/09:30pm - - - - - SSE 43 50 23 27 - - -
28/09:00pm - - - - - SSE 43 54 23 29 - - -
28/08:30pm - - - - - SSE 39 48 21 26 - - -
28/08:00pm - - - - - S 43 50 23 27 - - -
28/07:30pm - - - - - S 46 54 25 29 - - -
28/07:00pm - - - - - S 50 57 27 31 - - -
28/06:30pm - - - - - S 48 59 26 32 - - -
28/06:00pm - - - - - S 48 56 26 30 - - -
28/05:30pm - - - - - S 48 56 26 30 - - -
28/05:00pm - - - - - S 48 57 26 31 - - -
28/04:30pm - - - - - S 46 56 25 30 - - -
28/04:00pm - - - - - S 44 54 24 29 - - -
28/03:30pm - - - - - S 43 50 23 27 - - -
28/03:00pm - - - - - S 44 52 24 28 - - -
28/02:30pm - - - - - S 43 50 23 27 - - -
28/02:00pm - - - - - S 39 44 21 24 - - -
28/01:30pm - - - - - S 37 44 20 24 - - -
28/01:00pm - - - - - S 35 41 19 22 - - -
28/12:30pm - - - - - S 33 39 18 21 - - -
28/12:00pm - - - - - SSE 33 39 18 21 - - -
28/11:30am - - - - - SSE 30 37 16 20 - - -
28/11:00am - - - - - SSE 32 39 17 21 - - -
28/10:30am - - - - - SE 32 39 17 21 - - -
28/10:00am - - - - - SE 26 35 14 19 - - -
28/09:30am - - - - - SE 24 37 13 20 - - -
28/09:00am - - - - - ESE 26 37 14 20 - - -
28/08:30am - - - - - ESE 30 41 16 22 - - -
28/08:00am - - - - - ESE 33 46 18 25 - - -
28/07:30am - - - - - ESE 32 44 17 24 - - -
28/07:00am - - - - - ESE 35 46 19 25 - - -
28/06:30am - - - - - ESE 37 46 20 25 - - -
28/06:00am - - - - - ESE 30 41 16 22 - - -
28/05:30am - - - - - ESE 32 43 17 23 - - -
28/05:00am - - - - - ESE 33 44 18 24 - - -
28/04:30am - - - - - ESE 35 48 19 26 - - -
28/04:00am - - - - - ESE 35 50 19 27 - - -
28/03:46am - - - - - ESE 35 54 19 29 - - -
28/03:30am - - - - - ESE 33 46 18 25 - - -
28/03:00am - - - - - ESE 35 44 19 24 - - -
28/02:30am - - - - - ESE 33 46 18 25 - - -
28/02:00am - - - - - ESE 35 46 19 25 - - -
28/01:30am - - - - - ESE 30 41 16 22 - - -
28/01:00am - - - - - SE 37 46 20 25 - - -
28/12:30am - - - - - SE 44 56 24 30 - - -
28/12:00am - - - - - SSE 48 59 26 32 - - -
 
Date/Time
CDT
Temp
°C
App
Temp
°C
Dew
Point
Rel
Hum
%
Delta-T
°C
Wind Press
QNH
hPa
Press
MSL
hPa
Rain
since 9 am
mm
Dir
 
Spd
km/h
Gust
km/h
Spd
kts
Gust
kts
27/11:30pm - - - - - SSE 48 59 26 32 - - -
27/11:00pm - - - - - SSE 46 57 25 31 - - -
27/10:30pm - - - - - SSE 46 57 25 31 - - -
27/10:00pm - - - - - SSE 46 56 25 30 - - -
27/09:30pm - - - - - SSE 48 57 26 31 - - -
27/09:00pm - - - - - SSE 52 65 28 35 - - -
27/08:30pm - - - - - SSE 50 59 27 32 - - -
27/08:00pm - - - - - S 50 59 27 32 - - -
27/07:30pm - - - - - SSE 48 59 26 32 - - -
27/07:00pm - - - - - S 48 56 26 30 - - -
27/06:30pm - - - - - S 44 56 24 30 - - -
27/06:00pm - - - - - S 44 54 24 29 - - -
27/05:30pm - - - - - S 46 54 25 29 - - -
27/05:00pm - - - - - S 44 52 24 28 - - -
27/04:30pm - - - - - S 41 48 22 26 - - -
27/04:00pm - - - - - S 41 48 22 26 - - -
27/03:30pm - - - - - S 41 46 22 25 - - -

Other Formats:

Comma delimited format used in spreadsheet applications
http://www.bom.gov.au/fwo/IDS60801/IDS60801.95653.axf

JavaScript Object Notation format (JSON) in row-major order
http://www.bom.gov.au/fwo/IDS60801/IDS60801.95653.json